sensor_id;sensor_type;location;lat;lon;timestamp;P1;durP1;ratioP1;P2;durP2;ratioP2
19364;SDS011;9818;48.382;10.850;2022-09-09T05:23:50;4.20;;;2.07;;
19364;SDS011;9818;48.382;10.850;2022-09-09T06:23:39;1.20;;;1.10;;
19364;SDS011;9818;48.382;10.850;2022-09-09T06:26:10;1.53;;;1.20;;
19364;SDS011;9818;48.382;10.850;2022-09-09T06:28:43;3.07;;;1.27;;
19364;SDS011;9818;48.382;10.850;2022-09-09T06:31:13;2.07;;;1.30;;
19364;SDS011;9818;48.382;10.850;2022-09-09T06:33:46;2.07;;;1.20;;
19364;SDS011;9818;48.382;10.850;2022-09-09T06:36:16;2.50;;;1.50;;
19364;SDS011;9818;48.382;10.850;2022-09-09T06:38:46;2.47;;;1.30;;
19364;SDS011;9818;48.382;10.850;2022-09-09T06:41:16;2.10;;;1.20;;
19364;SDS011;9818;48.382;10.850;2022-09-09T06:43:49;1.33;;;1.10;;
19364;SDS011;9818;48.382;10.850;2022-09-09T06:46:20;2.83;;;1.30;;
19364;SDS011;9818;48.382;10.850;2022-09-09T06:48:52;1.90;;;1.40;;
19364;SDS011;9818;48.382;10.850;2022-09-09T06:51:24;1.87;;;1.50;;
19364;SDS011;9818;48.382;10.850;2022-09-09T06:53:54;3.87;;;1.47;;
19364;SDS011;9818;48.382;10.850;2022-09-09T06:56:24;2.27;;;1.60;;
19364;SDS011;9818;48.382;10.850;2022-09-09T06:58:57;2.50;;;1.60;;
19364;SDS011;9818;48.382;10.850;2022-09-09T07:01:29;3.83;;;1.47;;
19364;SDS011;9818;48.382;10.850;2022-09-09T07:04:00;2.00;;;1.60;;
19364;SDS011;9818;48.382;10.850;2022-09-09T07:06:30;5.83;;;1.60;;
19364;SDS011;9818;48.382;10.850;2022-09-09T07:09:01;5.63;;;1.50;;
19364;SDS011;9818;48.382;10.850;2022-09-09T07:11:32;2.80;;;1.50;;
19364;SDS011;9818;48.382;10.850;2022-09-09T07:14:05;1.50;;;1.40;;
19364;SDS011;9818;48.382;10.850;2022-09-09T07:16:34;4.20;;;1.50;;
19364;SDS011;9818;48.382;10.850;2022-09-09T07:19:04;1.57;;;1.40;;
19364;SDS011;9818;48.382;10.850;2022-09-09T07:21:33;1.53;;;1.43;;
19364;SDS011;9818;48.382;10.850;2022-09-09T07:24:02;1.93;;;1.37;;
19364;SDS011;9818;48.382;10.850;2022-09-09T07:26:32;1.77;;;1.43;;
19364;SDS011;9818;48.382;10.850;2022-09-09T07:29:02;4.13;;;1.50;;
19364;SDS011;9818;48.382;10.850;2022-09-09T07:31:34;5.03;;;1.57;;
19364;SDS011;9818;48.382;10.850;2022-09-09T07:34:04;1.20;;;1.10;;
19364;SDS011;9818;48.382;10.850;2022-09-09T07:36:34;2.73;;;1.40;;
19364;SDS011;9818;48.382;10.850;2022-09-09T07:39:05;9.57;;;2.03;;
19364;SDS011;9818;48.382;10.850;2022-09-09T07:41:36;10.13;;;1.93;;
19364;SDS011;9818;48.382;10.850;2022-09-09T07:44:08;6.37;;;2.07;;
19364;SDS011;9818;48.382;10.850;2022-09-09T07:46:39;7.90;;;1.97;;
19364;SDS011;9818;48.382;10.850;2022-09-09T07:49:11;5.73;;;1.80;;
19364;SDS011;9818;48.382;10.850;2022-09-09T07:51:41;1.70;;;1.40;;
19364;SDS011;9818;48.382;10.850;2022-09-09T07:54:12;1.30;;;1.20;;
19364;SDS011;9818;48.382;10.850;2022-09-09T07:56:42;4.30;;;1.33;;
19364;SDS011;9818;48.382;10.850;2022-09-09T07:59:14;2.73;;;1.30;;
19364;SDS011;9818;48.382;10.850;2022-09-09T08:01:44;2.03;;;1.40;;
19364;SDS011;9818;48.382;10.850;2022-09-09T08:16:43;1.47;;;1.37;;
19364;SDS011;9818;48.382;10.850;2022-09-09T08:19:14;3.43;;;1.40;;
19364;SDS011;9818;48.382;10.850;2022-09-09T08:21:43;1.53;;;1.00;;
19364;SDS011;9818;48.382;10.850;2022-09-09T08:24:14;1.57;;;1.10;;
19364;SDS011;9818;48.382;10.850;2022-09-09T08:34:15;1.80;;;0.70;;
19364;SDS011;9818;48.382;10.850;2022-09-09T08:36:46;1.80;;;0.80;;
19364;SDS011;9818;48.382;10.850;2022-09-09T08:39:16;1.20;;;0.80;;
19364;SDS011;9818;48.382;10.850;2022-09-09T08:44:57;0.73;;;0.73;;
19364;SDS011;9818;48.382;10.850;2022-09-09T08:47:41;6.17;;;1.10;;
19364;SDS011;9818;48.382;10.850;2022-09-09T08:50:21;4.07;;;1.70;;
19364;SDS011;9818;48.382;10.850;2022-09-09T08:52:55;7.47;;;2.23;;
19364;SDS011;9818;48.382;10.850;2022-09-09T08:55:32;7.23;;;1.70;;
19364;SDS011;9818;48.382;10.850;2022-09-09T08:58:09;3.37;;;1.43;;
19364;SDS011;9818;48.382;10.850;2022-09-09T09:00:47;2.13;;;1.13;;
19364;SDS011;9818;48.382;10.850;2022-09-09T09:03:28;1.40;;;0.80;;
19364;SDS011;9818;48.382;10.850;2022-09-09T09:06:04;1.03;;;0.90;;
19364;SDS011;9818;48.382;10.850;2022-09-09T09:08:43;1.17;;;0.83;;
19364;SDS011;9818;48.382;10.850;2022-09-09T09:11:16;1.20;;;0.70;;
19364;SDS011;9818;48.382;10.850;2022-09-09T09:13:47;1.17;;;0.80;;
19364;SDS011;9818;48.382;10.850;2022-09-09T09:16:27;4.00;;;0.80;;
19364;SDS011;9818;48.382;10.850;2022-09-09T09:19:01;0.70;;;0.70;;
19364;SDS011;9818;48.382;10.850;2022-09-09T09:21:34;0.80;;;0.80;;
19364;SDS011;9818;48.382;10.850;2022-09-09T09:24:09;0.83;;;0.70;;
19364;SDS011;9818;48.382;10.850;2022-09-09T09:26:44;1.77;;;1.10;;
19364;SDS011;9818;48.382;10.850;2022-09-09T09:29:14;1.23;;;0.97;;
19364;SDS011;9818;48.382;10.850;2022-09-09T09:31:48;0.90;;;0.77;;
19364;SDS011;9818;48.382;10.850;2022-09-09T09:34:19;1.33;;;0.90;;
19364;SDS011;9818;48.382;10.850;2022-09-09T09:36:52;1.10;;;0.80;;
19364;SDS011;9818;48.382;10.850;2022-09-09T09:39:23;1.20;;;0.80;;
19364;SDS011;9818;48.382;10.850;2022-09-09T09:41:53;1.83;;;1.07;;
19364;SDS011;9818;48.382;10.850;2022-09-09T09:44:23;0.90;;;0.80;;
19364;SDS011;9818;48.382;10.850;2022-09-09T09:47:07;2.07;;;1.10;;
19364;SDS011;9818;48.382;10.850;2022-09-09T09:49:39;1.10;;;1.00;;
19364;SDS011;9818;48.382;10.850;2022-09-09T09:52:20;1.10;;;0.67;;
19364;SDS011;9818;48.382;10.850;2022-09-09T09:54:51;0.87;;;0.70;;
19364;SDS011;9818;48.382;10.850;2022-09-09T09:57:25;1.20;;;0.70;;
19364;SDS011;9818;48.382;10.850;2022-09-09T10:00:00;2.93;;;0.93;;
19364;SDS011;9818;48.382;10.850;2022-09-09T10:02:39;0.83;;;0.80;;
19364;SDS011;9818;48.382;10.850;2022-09-09T10:05:12;1.03;;;0.77;;
19364;SDS011;9818;48.382;10.850;2022-09-09T10:07:43;1.70;;;0.90;;
19364;SDS011;9818;48.382;10.850;2022-09-09T10:10:15;2.50;;;0.93;;
19364;SDS011;9818;48.382;10.850;2022-09-09T10:12:51;0.80;;;0.80;;
19364;SDS011;9818;48.382;10.850;2022-09-09T10:15:35;1.47;;;0.90;;
19364;SDS011;9818;48.382;10.850;2022-09-09T10:18:20;1.83;;;0.90;;
19364;SDS011;9818;48.382;10.850;2022-09-09T10:21:00;1.30;;;0.90;;
19364;SDS011;9818;48.382;10.850;2022-09-09T10:23:41;1.07;;;0.97;;
19364;SDS011;9818;48.382;10.850;2022-09-09T10:26:26;0.83;;;0.80;;
19364;SDS011;9818;48.382;10.850;2022-09-09T10:52:37;2.73;;;0.93;;
19364;SDS011;9818;48.382;10.850;2022-09-09T10:55:16;2.53;;;1.00;;
19364;SDS011;9818;48.382;10.850;2022-09-09T10:57:47;1.33;;;0.80;;
19364;SDS011;9818;48.382;10.850;2022-09-09T12:24:52;5.23;;;1.00;;
19364;SDS011;9818;48.382;10.850;2022-09-09T12:27:31;2.40;;;0.93;;
19364;SDS011;9818;48.382;10.850;2022-09-09T12:30:04;4.60;;;1.27;;
19364;SDS011;9818;48.382;10.850;2022-09-09T12:32:37;1.87;;;1.00;;
19364;SDS011;9818;48.382;10.850;2022-09-09T12:35:09;1.10;;;1.00;;
19364;SDS011;9818;48.382;10.850;2022-09-09T12:37:44;2.83;;;1.10;;
19364;SDS011;9818;48.382;10.850;2022-09-09T12:40:19;2.00;;;1.10;;
19364;SDS011;9818;48.382;10.850;2022-09-09T12:42:50;2.90;;;1.17;;
19364;SDS011;9818;48.382;10.850;2022-09-09T12:45:21;2.03;;;1.07;;
19364;SDS011;9818;48.382;10.850;2022-09-09T12:47:52;1.90;;;1.07;;
19364;SDS011;9818;48.382;10.850;2022-09-09T12:50:24;1.83;;;0.97;;
19364;SDS011;9818;48.382;10.850;2022-09-09T12:52:58;2.47;;;1.17;;
19364;SDS011;9818;48.382;10.850;2022-09-09T12:55:30;4.50;;;1.40;;
19364;SDS011;9818;48.382;10.850;2022-09-09T12:58:01;5.13;;;1.87;;
19364;SDS011;9818;48.382;10.850;2022-09-09T13:00:32;2.33;;;1.03;;
19364;SDS011;9818;48.382;10.850;2022-09-09T13:03:02;1.50;;;1.20;;
19364;SDS011;9818;48.382;10.850;2022-09-09T13:05:43;3.90;;;1.40;;
19364;SDS011;9818;48.382;10.850;2022-09-09T13:08:16;3.63;;;1.23;;
19364;SDS011;9818;48.382;10.850;2022-09-09T13:10:47;2.30;;;1.20;;
19364;SDS011;9818;48.382;10.850;2022-09-09T13:13:21;1.73;;;1.10;;
19364;SDS011;9818;48.382;10.850;2022-09-09T13:15:52;1.40;;;1.00;;
19364;SDS011;9818;48.382;10.850;2022-09-09T13:18:23;1.73;;;0.90;;
19364;SDS011;9818;48.382;10.850;2022-09-09T13:20:55;3.20;;;1.33;;
19364;SDS011;9818;48.382;10.850;2022-09-09T13:23:29;2.03;;;1.00;;
19364;SDS011;9818;48.382;10.850;2022-09-09T13:26:00;3.47;;;1.00;;
19364;SDS011;9818;48.382;10.850;2022-09-09T13:28:33;4.50;;;1.27;;
19364;SDS011;9818;48.382;10.850;2022-09-09T13:31:02;2.10;;;1.00;;
19364;SDS011;9818;48.382;10.850;2022-09-09T13:33:33;4.30;;;1.00;;
19364;SDS011;9818;48.382;10.850;2022-09-09T13:36:03;2.17;;;1.00;;
19364;SDS011;9818;48.382;10.850;2022-09-09T14:11:33;2.40;;;1.00;;
19364;SDS011;9818;48.382;10.850;2022-09-09T14:14:02;1.77;;;0.90;;
19364;SDS011;9818;48.382;10.850;2022-09-09T14:38:53;1.15;;;1.00;;
